createdAt,value
2022-08-19T00:01:28.804Z,22.31
2022-08-19T00:03:58.192Z,22.23
2022-08-19T00:06:25.929Z,22.15
2022-08-19T00:08:53.702Z,22.14
2022-08-19T00:11:26.361Z,22.12
2022-08-19T00:13:57.466Z,22.08
2022-08-19T00:16:27.217Z,22.09
2022-08-19T00:18:56.270Z,22.06
2022-08-19T00:21:24.490Z,22.06
2022-08-19T00:23:52.250Z,22.05
2022-08-19T00:26:20.135Z,22.09
2022-08-19T00:28:49.149Z,22.09
2022-08-19T00:33:45.339Z,22.05
2022-08-19T00:36:13.546Z,22.03
2022-08-19T00:38:44.210Z,22.15
2022-08-19T00:41:15.489Z,22.07
2022-08-19T00:43:43.469Z,22.07
2022-08-19T00:46:12.457Z,22.05
2022-08-19T00:48:40.141Z,22.09
2022-08-19T00:51:08.088Z,22.05
2022-08-19T00:53:36.459Z,22.05
2022-08-19T00:56:07.194Z,22.05
2022-08-19T00:58:37.037Z,22.01
2022-08-19T01:01:06.356Z,22.17
2022-08-19T01:03:56.476Z,22.12
2022-08-19T01:06:23.283Z,22.09
2022-08-19T01:08:50.942Z,22.03
2022-08-19T01:11:18.833Z,22.06
2022-08-19T01:13:49.838Z,21.98
2022-08-19T01:16:21.170Z,22.02
2022-08-19T01:18:50.217Z,22.06
2022-08-19T01:21:23.956Z,22.09
2022-08-19T01:23:53.155Z,22.15
2022-08-19T01:26:23.686Z,22.11
2022-08-19T01:28:54.312Z,22.18
2022-08-19T01:31:32.704Z,22.19
2022-08-19T01:34:02.486Z,22.10
2022-08-19T01:36:32.577Z,22.01
2022-08-19T01:39:04.783Z,22.08
2022-08-19T01:41:32.816Z,22.00
2022-08-19T01:44:03.828Z,21.95
2022-08-19T01:46:46.147Z,22.07
2022-08-19T01:49:14.315Z,22.06
2022-08-19T01:51:41.975Z,22.07
2022-08-19T01:54:12.332Z,22.08
2022-08-19T01:56:40.188Z,22.08
2022-08-19T01:59:12.846Z,22.04
2022-08-19T02:01:40.716Z,22.05
2022-08-19T02:04:08.547Z,22.05
2022-08-19T02:06:36.940Z,22.03
2022-08-19T02:09:05.725Z,21.98
2022-08-19T02:11:37.078Z,22.06
2022-08-19T02:14:07.622Z,22.05
2022-08-19T02:16:36.008Z,21.97
2022-08-19T02:19:04.444Z,21.90
2022-08-19T02:21:32.706Z,21.83
2022-08-19T02:24:00.468Z,21.95
2022-08-19T02:26:28.397Z,21.86
2022-08-19T02:28:58.057Z,21.82
2022-08-19T02:31:28.780Z,21.77
2022-08-19T02:33:57.000Z,21.84
2022-08-19T02:36:26.130Z,21.88
2022-08-19T02:38:54.704Z,21.85
2022-08-19T02:41:27.037Z,21.76
2022-08-19T02:44:22.884Z,21.85
2022-08-19T02:46:45.800Z,21.72
2022-08-19T02:49:13.874Z,21.75
2022-08-19T02:51:43.674Z,21.79
2022-08-19T02:54:13.438Z,21.77
2022-08-19T02:56:43.232Z,21.88
2022-08-19T02:59:12.582Z,21.87
2022-08-19T03:01:42.787Z,21.90
2022-08-19T03:04:14.272Z,21.89
2022-08-19T03:06:44.081Z,21.93
2022-08-19T03:09:12.520Z,21.78
2022-08-19T03:11:40.692Z,21.79
2022-08-19T03:14:09.835Z,21.76
2022-08-19T03:16:46.388Z,21.78
2022-08-19T03:19:16.047Z,21.72
2022-08-19T03:21:45.819Z,21.78
2022-08-19T03:24:15.189Z,21.72
2022-08-19T03:26:44.297Z,21.77
2022-08-19T03:29:13.274Z,21.72
2022-08-19T03:31:51.257Z,21.74
2022-08-19T03:34:27.003Z,21.74
2022-08-19T03:36:55.334Z,21.69
2022-08-19T03:39:24.850Z,21.73
2022-08-19T03:42:31.931Z,21.78
2022-08-19T03:44:46.633Z,21.77
2022-08-19T03:47:17.241Z,21.76
2022-08-19T03:49:47.275Z,21.67
2022-08-19T03:52:15.118Z,21.69
2022-08-19T03:54:43.243Z,21.59
2022-08-19T03:57:11.291Z,21.67
2022-08-19T03:59:39.883Z,21.63
2022-08-19T04:02:11.125Z,21.59
2022-08-19T04:04:39.728Z,21.55
2022-08-19T04:07:09.272Z,21.54
2022-08-19T04:09:38.193Z,21.48
2022-08-19T04:12:07.542Z,21.45
2022-08-19T04:14:36.560Z,21.50
2022-08-19T04:17:06.378Z,21.34
2022-08-19T04:19:35.141Z,21.41
2022-08-19T04:22:02.865Z,21.39
2022-08-19T04:24:32.967Z,21.41
2022-08-19T04:27:01.686Z,21.36
2022-08-19T04:29:30.995Z,21.32
2022-08-19T04:31:59.644Z,21.41
2022-08-19T04:34:30.569Z,21.32
2022-08-19T04:37:00.507Z,21.32
2022-08-19T04:39:49.255Z,21.33
2022-08-19T04:42:35.118Z,21.41
2022-08-19T04:45:04.195Z,21.39
2022-08-19T04:47:49.400Z,21.38
2022-08-19T04:50:21.515Z,21.43
2022-08-19T04:52:52.082Z,21.38
2022-08-19T04:55:21.371Z,21.41
2022-08-19T04:57:49.841Z,21.46
2022-08-19T05:00:17.697Z,21.43
2022-08-19T05:02:45.255Z,21.61
2022-08-19T05:05:13.460Z,21.59
2022-08-19T05:07:42.026Z,21.72
2022-08-19T05:10:10.321Z,21.81
2022-08-19T05:12:39.271Z,21.86
2022-08-19T05:15:09.321Z,22.03
2022-08-19T05:17:38.904Z,22.08
2022-08-19T05:20:27.395Z,22.18
2022-08-19T05:22:55.320Z,22.22
2022-08-19T05:25:25.570Z,22.35
2022-08-19T05:27:54.637Z,22.46
2022-08-19T05:30:24.430Z,22.58
2022-08-19T05:33:13.052Z,22.48
2022-08-19T05:35:42.020Z,22.66
2022-08-19T05:38:12.087Z,22.88
2022-08-19T05:40:40.280Z,22.88
2022-08-19T05:43:10.228Z,22.90
2022-08-19T05:45:41.298Z,23.09
2022-08-19T05:48:11.948Z,23.25
2022-08-19T05:50:40.832Z,23.63
2022-08-19T05:53:09.823Z,23.95
2022-08-19T05:55:39.176Z,24.10
2022-08-19T05:58:08.420Z,24.41
2022-08-19T06:00:38.821Z,24.66
2022-08-19T06:03:12.446Z,24.75
2022-08-19T06:05:42.278Z,25.34
2022-08-19T06:08:19.330Z,25.50
2022-08-19T06:10:47.465Z,25.90
2022-08-19T06:13:15.123Z,25.90
2022-08-19T06:15:45.200Z,26.46
2022-08-19T06:18:12.916Z,26.82
2022-08-19T06:20:55.423Z,27.03
2022-08-19T06:23:24.289Z,26.73
2022-08-19T06:25:52.159Z,26.06
2022-08-19T06:28:19.996Z,25.52
2022-08-19T06:30:49.211Z,25.21
2022-08-19T06:33:16.866Z,24.84
2022-08-19T06:35:46.385Z,24.72
2022-08-19T06:38:17.067Z,24.93
2022-08-19T06:43:12.317Z,24.97
2022-08-19T06:45:41.925Z,25.32
2022-08-19T06:48:11.615Z,25.60
2022-08-19T06:50:41.020Z,25.47
2022-08-19T06:53:08.903Z,25.75
2022-08-19T06:55:36.611Z,26.66
2022-08-19T06:58:05.060Z,27.43
2022-08-19T07:00:34.946Z,27.92
2022-08-19T07:03:06.398Z,27.95
2022-08-19T07:05:45.941Z,27.64
2022-08-19T07:08:14.367Z,27.79
2022-08-19T07:10:45.798Z,28.05
2022-08-19T07:13:13.519Z,28.44
2022-08-19T07:15:42.232Z,28.86
2022-08-19T07:18:11.972Z,29.15
2022-08-19T07:20:42.629Z,28.50
2022-08-19T07:23:15.928Z,28.18
2022-08-19T07:25:44.822Z,27.48
2022-08-19T07:28:24.787Z,27.15
2022-08-19T07:30:53.207Z,27.02
2022-08-19T07:33:21.188Z,27.25
2022-08-19T07:35:50.861Z,27.52
2022-08-19T07:38:18.952Z,28.34
2022-08-19T07:40:47.685Z,28.64
2022-08-19T07:43:17.347Z,29.26
2022-08-19T07:45:46.133Z,29.24
2022-08-19T07:48:13.904Z,28.62
2022-08-19T07:50:41.661Z,28.10
2022-08-19T07:53:10.795Z,29.40
2022-08-19T07:55:42.262Z,30.17
2022-08-19T07:58:12.124Z,30.46
2022-08-19T08:00:39.884Z,30.68
2022-08-19T08:03:07.715Z,30.78
2022-08-19T08:05:53.158Z,31.26
2022-08-19T08:08:44.216Z,32.24
2022-08-19T08:11:20.057Z,32.52
2022-08-19T08:14:01.309Z,32.15
2022-08-19T08:16:33.284Z,32.17
2022-08-19T08:19:02.823Z,32.92
2022-08-19T08:21:35.695Z,32.76
2022-08-19T08:24:05.530Z,31.70
2022-08-19T08:26:33.664Z,31.22
2022-08-19T08:29:02.398Z,31.23
2022-08-19T08:31:40.719Z,31.12
2022-08-19T08:34:09.479Z,31.16
2022-08-19T08:36:41.703Z,30.42
2022-08-19T08:39:11.373Z,30.28
2022-08-19T08:41:47.332Z,30.59
2022-08-19T08:44:21.884Z,29.48
2022-08-19T08:46:53.197Z,28.86
2022-08-19T08:49:30.354Z,28.32
2022-08-19T08:52:04.065Z,28.28
2022-08-19T08:54:39.184Z,28.03
2022-08-19T08:57:12.728Z,27.68
2022-08-19T08:59:43.632Z,27.85
2022-08-19T09:02:11.501Z,28.18
2022-08-19T09:04:40.248Z,28.22
2022-08-19T09:07:36.032Z,28.15
2022-08-19T09:10:15.944Z,28.21
2022-08-19T09:12:54.895Z,28.78
2022-08-19T09:15:33.714Z,29.54
2022-08-19T09:18:07.077Z,29.63
2022-08-19T09:20:35.067Z,29.51
2022-08-19T09:23:02.922Z,29.81
2022-08-19T09:25:35.296Z,29.88
2022-08-19T09:28:05.638Z,29.12
2022-08-19T09:30:43.520Z,28.44
2022-08-19T09:33:11.406Z,28.43
2022-08-19T09:35:49.807Z,28.34
2022-08-19T09:38:21.467Z,28.38
2022-08-19T09:40:51.070Z,28.61
2022-08-19T09:43:32.980Z,28.37
2022-08-19T09:46:02.717Z,27.75
2022-08-19T09:48:30.809Z,27.59
2022-08-19T09:51:06.157Z,27.39
2022-08-19T09:53:34.177Z,27.28
2022-08-19T09:56:04.050Z,27.27
2022-08-19T09:58:32.139Z,27.57
2022-08-19T10:01:02.411Z,27.57
2022-08-19T10:03:32.179Z,27.69
2022-08-19T10:06:02.231Z,27.62
2022-08-19T10:08:33.944Z,28.18
2022-08-19T10:11:27.895Z,27.91
2022-08-19T10:13:52.415Z,28.01
2022-08-19T10:16:26.130Z,27.87
2022-08-19T10:18:58.830Z,27.74
2022-08-19T10:21:29.109Z,28.17
2022-08-19T10:24:04.801Z,28.35
2022-08-19T10:26:38.087Z,28.70
2022-08-19T10:29:09.261Z,28.29
2022-08-19T10:32:01.216Z,27.72
2022-08-19T10:34:28.186Z,27.76
2022-08-19T10:37:00.498Z,28.15
2022-08-19T10:39:32.677Z,28.62
2022-08-19T10:42:13.881Z,29.29
2022-08-19T10:44:42.515Z,29.45
2022-08-19T10:47:17.546Z,29.58
2022-08-19T10:50:11.951Z,29.35
2022-08-19T10:52:40.275Z,28.90
2022-08-19T10:55:36.904Z,28.79
2022-08-19T10:58:06.209Z,28.25
2022-08-19T11:00:34.606Z,28.01
2022-08-19T11:03:02.365Z,27.88
2022-08-19T11:05:30.336Z,28.19
2022-08-19T11:08:23.866Z,28.62
2022-08-19T11:10:54.514Z,28.86
2022-08-19T11:13:24.304Z,29.07
2022-08-19T11:16:00.890Z,28.96
2022-08-19T11:18:31.577Z,28.64
2022-08-19T11:21:07.970Z,28.16
2022-08-19T11:23:35.816Z,28.13
2022-08-19T11:26:03.662Z,28.40
2022-08-19T11:28:32.665Z,28.81
2022-08-19T11:31:00.516Z,29.37
2022-08-19T11:33:28.414Z,29.79
2022-08-19T11:35:56.342Z,30.01
2022-08-19T11:38:24.008Z,30.16
2022-08-19T11:40:57.349Z,29.89
2022-08-19T11:43:25.173Z,29.33
2022-08-19T11:45:54.363Z,29.04
2022-08-19T11:48:23.378Z,29.13
2022-08-19T11:50:51.196Z,29.23
2022-08-19T11:53:20.253Z,29.74
2022-08-19T11:55:49.075Z,29.95
2022-08-19T11:58:19.334Z,30.28
2022-08-19T12:00:47.426Z,29.94
2022-08-19T12:03:16.633Z,29.85
2022-08-19T12:05:44.328Z,29.64
2022-08-19T12:08:13.555Z,29.10
2022-08-19T12:10:43.080Z,28.54
2022-08-19T12:13:11.305Z,28.42
2022-08-19T12:15:41.329Z,28.22
2022-08-19T12:18:10.287Z,28.46
2022-08-19T12:20:41.777Z,28.88
2022-08-19T12:23:11.170Z,29.46
2022-08-19T12:25:39.409Z,29.78
2022-08-19T12:28:07.016Z,30.01
2022-08-19T12:30:34.637Z,29.65
2022-08-19T12:33:02.274Z,29.21
2022-08-19T12:35:31.440Z,28.94
2022-08-19T12:38:00.913Z,28.95
2022-08-19T12:40:28.947Z,29.30
2022-08-19T12:42:56.653Z,29.75
2022-08-19T12:45:24.499Z,29.95
2022-08-19T12:47:54.783Z,29.65
2022-08-19T12:50:23.364Z,29.01
2022-08-19T12:52:51.175Z,28.71
2022-08-19T12:55:20.461Z,28.76
2022-08-19T12:57:49.621Z,28.99
2022-08-19T13:00:21.972Z,29.29
2022-08-19T13:02:52.249Z,29.87
2022-08-19T13:05:24.141Z,30.04
2022-08-19T13:07:54.178Z,30.09
2022-08-19T13:10:25.636Z,29.63
2022-08-19T13:12:54.074Z,29.25
2022-08-19T13:15:24.537Z,28.90
2022-08-19T13:17:54.742Z,28.71
2022-08-19T13:20:23.532Z,28.66
2022-08-19T13:22:51.725Z,28.87
2022-08-19T13:25:20.866Z,28.98
2022-08-19T13:27:51.688Z,29.18
2022-08-19T13:30:39.187Z,29.65
2022-08-19T13:33:15.918Z,29.81
2022-08-19T13:35:46.609Z,30.42
2022-08-19T13:38:15.535Z,30.91
2022-08-19T13:40:43.383Z,30.74
2022-08-19T13:43:17.602Z,30.78
2022-08-19T13:45:55.024Z,30.94
2022-08-19T13:48:23.409Z,30.56
2022-08-19T13:50:51.248Z,30.29
2022-08-19T13:53:19.675Z,29.88
2022-08-19T13:55:47.564Z,29.47
2022-08-19T13:58:16.861Z,29.47
2022-08-19T14:00:47.957Z,29.51
2022-08-19T14:03:16.382Z,29.43
2022-08-19T14:05:44.183Z,29.49
2022-08-19T14:08:13.192Z,29.50
2022-08-19T14:10:43.631Z,29.46
2022-08-19T14:13:11.228Z,29.76
2022-08-19T14:15:40.645Z,29.93
2022-08-19T14:18:08.443Z,30.30
2022-08-19T14:20:36.555Z,30.22
2022-08-19T14:23:06.033Z,30.36
2022-08-19T14:25:35.619Z,30.24
2022-08-19T14:28:03.869Z,30.18
2022-08-19T14:30:34.153Z,30.05
2022-08-19T14:33:04.475Z,30.14
2022-08-19T14:35:35.544Z,30.39
2022-08-19T14:38:04.504Z,30.30
2022-08-19T14:40:32.787Z,29.99
2022-08-19T14:43:05.729Z,29.71
2022-08-19T14:45:36.530Z,29.42
2022-08-19T14:48:06.209Z,29.47
2022-08-19T14:50:34.485Z,29.44
2022-08-19T14:53:09.119Z,29.23
2022-08-19T14:55:43.767Z,29.16
2022-08-19T14:58:29.282Z,29.20
2022-08-19T15:01:00.377Z,29.08
2022-08-19T15:03:30.752Z,29.12
2022-08-19T15:05:58.931Z,29.38
2022-08-19T15:08:27.881Z,29.49
2022-08-19T15:10:55.762Z,29.68
2022-08-19T15:13:23.760Z,29.82
2022-08-19T15:15:52.552Z,29.64
2022-08-19T15:18:21.359Z,29.61
2022-08-19T15:20:50.833Z,29.60
2022-08-19T15:23:21.263Z,29.59
2022-08-19T15:25:49.210Z,29.55
2022-08-19T15:28:17.369Z,29.74
2022-08-19T15:30:45.363Z,30.02
2022-08-19T15:33:15.098Z,30.21
2022-08-19T15:35:43.108Z,30.21
2022-08-19T15:38:13.811Z,30.23
2022-08-19T15:40:42.497Z,30.17
2022-08-19T15:43:10.204Z,29.96
2022-08-19T15:45:40.187Z,29.86
2022-08-19T15:48:07.884Z,29.91
2022-08-19T15:50:35.778Z,30.03
2022-08-19T15:53:07.145Z,30.15
2022-08-19T15:55:38.884Z,30.35
2022-08-19T15:58:28.817Z,30.28
2022-08-19T16:01:15.967Z,30.01
2022-08-19T16:04:01.649Z,29.93
2022-08-19T16:06:31.333Z,29.80
2022-08-19T16:09:01.827Z,29.67
2022-08-19T16:11:38.960Z,29.68
2022-08-19T16:14:09.160Z,29.70
2022-08-19T16:16:38.576Z,29.71
2022-08-19T16:19:10.323Z,29.58
2022-08-19T16:21:41.584Z,29.59
2022-08-19T16:24:12.054Z,29.64
2022-08-19T16:26:42.807Z,29.75
2022-08-19T16:29:12.243Z,29.72
2022-08-19T16:31:43.324Z,29.68
2022-08-19T16:34:12.063Z,29.73
2022-08-19T16:36:41.672Z,29.75
2022-08-19T16:39:11.371Z,29.57
2022-08-19T16:41:43.813Z,29.53
2022-08-19T16:44:14.315Z,29.53
2022-08-19T16:46:42.545Z,29.61
2022-08-19T16:49:11.991Z,29.57
2022-08-19T16:51:40.175Z,29.47
2022-08-19T16:54:08.441Z,29.43
2022-08-19T16:56:36.775Z,29.26
2022-08-19T16:59:06.602Z,29.28
2022-08-19T17:01:34.329Z,29.21
2022-08-19T17:04:02.031Z,29.18
2022-08-19T17:06:32.045Z,29.10
2022-08-19T17:09:01.954Z,29.14
2022-08-19T17:11:33.034Z,29.15
2022-08-19T17:14:01.753Z,29.18
2022-08-19T17:16:34.147Z,29.08
2022-08-19T17:19:04.917Z,29.02
2022-08-19T17:21:34.355Z,29.05
2022-08-19T17:24:04.468Z,28.98
2022-08-19T17:26:32.438Z,28.97
2022-08-19T17:29:01.365Z,28.99
2022-08-19T17:31:32.328Z,28.96
2022-08-19T17:34:00.954Z,28.93
2022-08-19T17:36:34.469Z,28.93
2022-08-19T17:39:04.108Z,28.96
2022-08-19T17:41:34.044Z,28.86
2022-08-19T17:44:04.384Z,28.85
2022-08-19T17:46:34.036Z,28.85
2022-08-19T17:49:01.839Z,28.66
2022-08-19T17:51:41.955Z,28.69
2022-08-19T17:54:11.940Z,28.60
2022-08-19T17:56:39.694Z,28.53
2022-08-19T17:59:11.821Z,28.52
2022-08-19T18:01:53.827Z,28.56
2022-08-19T18:04:24.557Z,28.45
2022-08-19T18:06:54.423Z,28.29
2022-08-19T18:09:25.613Z,28.25
2022-08-19T18:11:55.391Z,28.19
2022-08-19T18:14:32.146Z,28.03
2022-08-19T18:17:06.055Z,27.91
2022-08-19T18:19:41.314Z,27.84
2022-08-19T18:22:11.686Z,27.79
2022-08-19T18:24:41.234Z,27.61
2022-08-19T18:27:11.311Z,27.47
2022-08-19T18:29:40.145Z,27.51
2022-08-19T18:32:13.164Z,27.36
2022-08-19T18:34:41.836Z,27.29
2022-08-19T18:37:09.762Z,27.15
2022-08-19T18:39:55.612Z,27.19
2022-08-19T18:42:41.338Z,27.12
2022-08-19T18:45:27.680Z,26.98
2022-08-19T18:48:18.486Z,26.89
2022-08-19T18:50:54.928Z,26.74
2022-08-19T18:53:23.254Z,26.72
2022-08-19T18:55:53.884Z,26.66
2022-08-19T18:58:26.095Z,26.64
2022-08-19T19:00:56.732Z,26.65
2022-08-19T19:03:26.640Z,26.53
2022-08-19T19:05:54.636Z,26.52
2022-08-19T19:08:26.875Z,26.43
2022-08-19T19:10:56.684Z,26.47
2022-08-19T19:13:24.408Z,26.35
2022-08-19T19:15:52.119Z,26.37
2022-08-19T19:18:20.458Z,26.15
2022-08-19T19:20:49.552Z,26.30
2022-08-19T19:23:18.228Z,26.12
2022-08-19T19:25:50.932Z,26.12
2022-08-19T19:28:25.318Z,26.14
2022-08-19T19:30:54.145Z,26.11
2022-08-19T19:33:21.814Z,26.08
2022-08-19T19:35:50.891Z,26.12
2022-08-19T19:38:18.580Z,26.11
2022-08-19T19:40:46.497Z,26.02
2022-08-19T19:43:18.349Z,25.99
2022-08-19T19:45:47.545Z,25.88
2022-08-19T19:48:15.547Z,25.88
2022-08-19T19:50:43.990Z,25.76
2022-08-19T19:53:15.040Z,25.74
2022-08-19T19:55:43.494Z,25.67
2022-08-19T19:58:11.251Z,25.62
2022-08-19T20:00:39.342Z,25.50
2022-08-19T20:03:07.221Z,25.43
2022-08-19T20:05:34.904Z,25.38
2022-08-19T20:08:20.008Z,25.39
2022-08-19T20:10:49.052Z,25.39
2022-08-19T20:13:16.706Z,25.37
2022-08-19T20:15:44.575Z,25.34
2022-08-19T20:18:14.304Z,25.32
2022-08-19T20:20:42.977Z,25.23
2022-08-19T20:23:10.729Z,25.15
2022-08-19T20:25:39.857Z,25.18
2022-08-19T20:28:09.179Z,25.21
2022-08-19T20:30:37.787Z,25.10
2022-08-19T20:33:10.491Z,25.05
2022-08-19T20:35:39.019Z,25.06
2022-08-19T20:38:08.670Z,24.88
2022-08-19T20:40:37.772Z,24.93
2022-08-19T20:43:10.186Z,24.94
2022-08-19T20:45:38.004Z,24.89
2022-08-19T20:48:07.839Z,24.80
2022-08-19T20:50:37.646Z,24.78
2022-08-19T20:53:10.978Z,24.75
2022-08-19T20:55:38.585Z,24.60
2022-08-19T20:58:06.406Z,24.52
2022-08-19T21:00:35.439Z,24.54
2022-08-19T21:03:03.594Z,24.49
2022-08-19T21:05:31.148Z,24.40
2022-08-19T21:07:59.164Z,24.37
2022-08-19T21:10:27.506Z,24.32
2022-08-19T21:12:55.344Z,24.22
2022-08-19T21:15:24.549Z,24.15
2022-08-19T21:17:53.615Z,24.05
2022-08-19T21:20:21.642Z,23.98
2022-08-19T21:22:49.308Z,23.95
2022-08-19T21:25:17.555Z,23.97
2022-08-19T21:27:45.131Z,23.93
2022-08-19T21:30:14.425Z,23.98
2022-08-19T21:32:42.004Z,23.95
2022-08-19T21:35:11.113Z,23.95
2022-08-19T21:37:38.997Z,23.92
2022-08-19T21:40:08.224Z,23.98
2022-08-19T21:42:37.681Z,23.86
2022-08-19T21:45:06.360Z,23.92
2022-08-19T21:47:34.009Z,23.90
2022-08-19T21:50:01.717Z,23.86
2022-08-19T21:52:30.973Z,23.80
2022-08-19T21:54:58.995Z,23.79
2022-08-19T21:57:28.427Z,23.73
2022-08-19T21:59:56.160Z,23.72
2022-08-19T22:02:23.869Z,23.65
2022-08-19T22:04:52.969Z,23.67
2022-08-19T22:07:21.851Z,23.69
2022-08-19T22:09:52.620Z,23.68
2022-08-19T22:12:23.327Z,23.64
2022-08-19T22:14:52.015Z,23.73
2022-08-19T22:17:20.337Z,23.65
2022-08-19T22:19:48.173Z,23.68
2022-08-19T22:22:21.599Z,23.55
2022-08-19T22:24:50.966Z,23.52
2022-08-19T22:27:19.326Z,23.45
2022-08-19T22:29:47.302Z,23.51
2022-08-19T22:32:28.225Z,23.50
2022-08-19T22:34:59.637Z,23.41
2022-08-19T22:37:28.852Z,23.36
2022-08-19T22:39:58.053Z,23.32
2022-08-19T22:42:31.876Z,23.38
2022-08-19T22:45:01.619Z,23.40
2022-08-19T22:47:32.265Z,23.42
2022-08-19T22:50:08.318Z,23.47
2022-08-19T22:52:47.894Z,23.42
2022-08-19T22:55:23.591Z,23.41
2022-08-19T22:57:51.176Z,23.31
2022-08-19T23:00:19.737Z,23.44
2022-08-19T23:02:52.380Z,23.41
2022-08-19T23:05:22.863Z,23.35
2022-08-19T23:07:52.186Z,23.34
2022-08-19T23:10:27.572Z,23.26
2022-08-19T23:12:58.127Z,23.28
2022-08-19T23:15:28.862Z,23.29
2022-08-19T23:17:58.607Z,23.30
2022-08-19T23:20:28.481Z,23.22
2022-08-19T23:22:57.264Z,23.13
2022-08-19T23:25:30.276Z,23.04
2022-08-19T23:28:26.887Z,23.02
2022-08-19T23:30:55.219Z,23.13
2022-08-19T23:33:26.494Z,23.18
2022-08-19T23:36:18.477Z,23.24
2022-08-19T23:38:48.764Z,23.28
2022-08-19T23:41:20.230Z,23.25
2022-08-19T23:43:48.119Z,23.26
2022-08-19T23:46:27.536Z,23.11
2022-08-19T23:48:56.335Z,23.04
2022-08-19T23:51:26.611Z,22.98
2022-08-19T23:53:54.573Z,23.04
2022-08-19T23:56:23.689Z,22.93
2022-08-19T23:58:51.461Z,22.87
